createdAt,value
2022-12-10T00:01:17.721Z,16.63
2022-12-10T00:03:44.927Z,15.47
2022-12-10T00:06:13.764Z,14.50
2022-12-10T00:08:40.472Z,14.60
2022-12-10T00:11:08.913Z,13.20
2022-12-10T00:13:36.765Z,14.30
2022-12-10T00:16:05.328Z,10.53
2022-12-10T00:18:32.254Z,13.17
2022-12-10T00:20:58.628Z,13.73
2022-12-10T00:23:25.076Z,11.93
2022-12-10T00:25:51.521Z,13.90
2022-12-10T00:28:17.865Z,13.80
2022-12-10T00:30:44.153Z,13.17
2022-12-10T00:33:10.457Z,13.33
2022-12-10T00:35:37.651Z,12.97
2022-12-10T00:38:04.456Z,8.93
2022-12-10T00:40:30.759Z,13.57
2022-12-10T00:42:57.043Z,9.30
2022-12-10T00:45:23.328Z,13.43
2022-12-10T00:47:49.689Z,9.40
2022-12-10T00:50:16.020Z,11.93
2022-12-10T00:52:42.362Z,13.93
2022-12-10T00:55:08.853Z,12.00
2022-12-10T00:57:35.133Z,14.70
2022-12-10T01:00:01.431Z,17.00
2022-12-10T01:02:27.735Z,16.40
2022-12-10T01:04:54.737Z,13.93
2022-12-10T01:07:21.089Z,13.30
2022-12-10T01:09:47.745Z,12.87
2022-12-10T01:12:14.057Z,13.57
2022-12-10T01:14:40.419Z,12.63
2022-12-10T01:17:07.002Z,14.13
2022-12-10T01:19:34.337Z,14.90
2022-12-10T01:22:00.830Z,14.90
2022-12-10T01:24:28.619Z,16.20
2022-12-10T01:26:56.108Z,13.37
2022-12-10T01:29:23.085Z,14.37
2022-12-10T01:31:52.898Z,12.60
2022-12-10T01:34:19.542Z,13.67
2022-12-10T01:36:49.613Z,14.83
2022-12-10T01:39:17.614Z,12.77
2022-12-10T01:41:47.490Z,11.73
2022-12-10T01:44:13.701Z,12.90
2022-12-10T01:46:42.513Z,17.80
2022-12-10T01:49:15.682Z,8.27
2022-12-10T01:51:44.346Z,13.77
2022-12-10T01:54:17.119Z,12.10
2022-12-10T01:56:46.651Z,12.77
2022-12-10T01:59:16.426Z,11.90
2022-12-10T02:02:13.930Z,12.53
2022-12-10T02:04:56.509Z,14.03
2022-12-10T02:07:40.310Z,13.27
2022-12-10T02:10:17.038Z,15.23
2022-12-10T02:13:04.997Z,13.47
2022-12-10T02:15:35.551Z,15.53
2022-12-10T02:18:26.618Z,13.77
2022-12-10T02:20:58.141Z,16.77
2022-12-10T02:23:26.741Z,15.63
2022-12-10T02:26:11.588Z,12.83
2022-12-10T02:28:48.102Z,13.43
2022-12-10T02:31:19.613Z,14.60
2022-12-10T02:33:51.236Z,15.47
2022-12-10T02:36:21.477Z,13.00
2022-12-10T02:38:50.471Z,14.43
2022-12-10T02:41:27.821Z,14.60
2022-12-10T02:43:57.526Z,16.17
2022-12-10T02:46:31.768Z,14.20
2022-12-10T02:48:59.110Z,14.13
2022-12-10T02:51:25.403Z,15.53
2022-12-10T02:54:07.681Z,13.57
2022-12-10T02:56:41.302Z,13.80
2022-12-10T02:59:15.477Z,14.37
2022-12-10T03:02:00.593Z,11.83
2022-12-10T03:04:39.818Z,12.03
2022-12-10T03:07:32.293Z,12.90
2022-12-10T03:10:07.563Z,14.70
2022-12-10T03:12:40.171Z,13.40
2022-12-10T03:15:10.819Z,11.07
2022-12-10T03:17:40.042Z,8.00
2022-12-10T03:20:09.930Z,13.27
2022-12-10T03:22:40.186Z,12.17
2022-12-10T03:25:08.247Z,11.63
2022-12-10T03:27:35.764Z,6.67
2022-12-10T03:30:02.209Z,8.33
2022-12-10T03:32:30.264Z,9.93
2022-12-10T03:34:58.824Z,10.63
2022-12-10T03:37:27.746Z,11.90
2022-12-10T03:39:54.354Z,13.60
2022-12-10T03:42:20.710Z,11.73
2022-12-10T03:44:52.800Z,10.20
2022-12-10T03:47:20.376Z,14.33
2022-12-10T03:49:46.753Z,15.27
2022-12-10T03:52:13.639Z,15.73
2022-12-10T03:54:40.165Z,9.70
2022-12-10T03:57:06.728Z,12.27
2022-12-10T03:59:33.042Z,14.10
2022-12-10T04:01:59.395Z,14.90
2022-12-10T04:04:25.747Z,14.83
2022-12-10T04:06:52.125Z,13.23
2022-12-10T04:09:18.474Z,11.37
2022-12-10T04:11:45.230Z,13.37
2022-12-10T04:14:31.176Z,11.20
2022-12-10T04:16:57.972Z,12.93
2022-12-10T04:19:24.329Z,11.00
2022-12-10T04:22:09.252Z,11.80
2022-12-10T04:24:55.988Z,12.77
2022-12-10T04:27:28.157Z,8.67
2022-12-10T04:29:56.028Z,16.03
2022-12-10T04:32:23.230Z,10.73
2022-12-10T04:34:49.542Z,10.40
2022-12-10T04:37:16.502Z,10.37
2022-12-10T04:39:43.099Z,12.80
2022-12-10T04:42:09.577Z,11.50
2022-12-10T04:44:36.489Z,12.60
2022-12-10T04:47:05.055Z,11.63
2022-12-10T04:49:31.361Z,10.63
2022-12-10T04:51:57.790Z,11.10
2022-12-10T04:54:24.574Z,9.87
2022-12-10T04:56:51.099Z,14.53
2022-12-10T04:59:17.707Z,13.73
2022-12-10T05:01:44.990Z,11.13
2022-12-10T05:04:14.049Z,11.17
2022-12-10T05:06:41.047Z,16.07
2022-12-10T05:09:07.713Z,15.63
2022-12-10T05:11:35.496Z,14.33
2022-12-10T05:14:01.887Z,14.77
2022-12-10T05:16:31.857Z,12.67
2022-12-10T05:18:58.634Z,10.50
2022-12-10T05:21:50.409Z,14.97
2022-12-10T05:24:18.383Z,13.47
2022-12-10T05:26:45.112Z,15.13
2022-12-10T05:29:13.312Z,12.87
2022-12-10T05:31:39.700Z,15.23
2022-12-10T05:34:05.998Z,12.40
2022-12-10T05:36:32.831Z,13.77
2022-12-10T05:38:59.618Z,12.30
2022-12-10T05:41:29.066Z,15.13
2022-12-10T05:43:56.755Z,15.20
2022-12-10T05:46:29.135Z,17.63
2022-12-10T05:48:56.208Z,14.90
2022-12-10T05:51:28.129Z,11.87
2022-12-10T05:53:55.248Z,11.70
2022-12-10T05:56:23.771Z,14.47
2022-12-10T05:58:51.851Z,15.17
2022-12-10T06:01:20.887Z,12.53
2022-12-10T06:03:47.946Z,16.37
2022-12-10T06:06:14.798Z,17.40
2022-12-10T06:08:41.242Z,15.63
2022-12-10T06:11:11.559Z,13.67
2022-12-10T06:13:38.776Z,12.00
2022-12-10T06:16:10.434Z,18.77
2022-12-10T06:18:37.401Z,20.03
2022-12-10T06:21:09.103Z,18.10
2022-12-10T06:23:36.774Z,15.57
2022-12-10T06:26:14.387Z,12.73
2022-12-10T06:28:45.174Z,12.93
2022-12-10T06:31:11.665Z,15.47
2022-12-10T06:33:38.219Z,14.67
2022-12-10T06:36:10.006Z,14.80
2022-12-10T06:38:39.061Z,14.33
2022-12-10T06:41:07.677Z,16.67
2022-12-10T06:43:34.100Z,14.13
2022-12-10T06:46:05.700Z,14.77
2022-12-10T06:48:31.993Z,12.80
2022-12-10T06:50:58.277Z,12.23
2022-12-10T06:53:24.920Z,14.97
2022-12-10T06:55:51.201Z,13.63
2022-12-10T06:58:17.519Z,16.43
2022-12-10T07:00:43.903Z,14.97
2022-12-10T07:03:10.215Z,13.20
2022-12-10T07:05:36.535Z,11.77
2022-12-10T07:08:02.873Z,17.73
2022-12-10T07:10:29.180Z,16.93
2022-12-10T07:12:55.496Z,15.17
2022-12-10T07:15:24.017Z,11.10
2022-12-10T07:17:51.888Z,14.33
2022-12-10T07:20:18.268Z,15.67
2022-12-10T07:22:44.612Z,12.63
2022-12-10T07:25:10.960Z,14.77
2022-12-10T07:27:37.608Z,13.23
2022-12-10T07:30:04.123Z,13.37
2022-12-10T07:32:30.426Z,11.93
2022-12-10T07:34:56.848Z,13.60
2022-12-10T07:37:23.128Z,15.53
2022-12-10T07:39:49.445Z,12.80
2022-12-10T07:42:15.770Z,13.70
2022-12-10T07:44:48.952Z,12.33
2022-12-10T07:47:15.933Z,12.43
2022-12-10T07:49:42.253Z,12.30
2022-12-10T07:52:09.150Z,14.00
2022-12-10T07:54:35.463Z,13.77
2022-12-10T07:57:01.770Z,14.63
2022-12-10T07:59:28.102Z,15.77
2022-12-10T08:01:54.457Z,15.00
2022-12-10T08:04:20.865Z,14.37
2022-12-10T08:06:48.437Z,14.50
2022-12-10T08:09:14.753Z,17.27
2022-12-10T08:11:41.128Z,14.97
2022-12-10T08:14:07.414Z,13.47
2022-12-10T08:16:33.784Z,17.87
2022-12-10T08:19:02.206Z,14.37
2022-12-10T08:21:31.972Z,15.37
2022-12-10T08:23:58.760Z,16.43
2022-12-10T08:26:27.936Z,15.23
2022-12-10T08:28:54.759Z,14.00
2022-12-10T08:31:22.843Z,14.73
2022-12-10T08:33:49.456Z,15.03
2022-12-10T08:36:17.577Z,14.77
2022-12-10T08:38:45.110Z,15.90
2022-12-10T08:41:17.397Z,17.23
2022-12-10T08:43:44.158Z,13.00
2022-12-10T08:46:11.524Z,14.57
2022-12-10T08:48:38.856Z,12.83
2022-12-10T08:51:06.381Z,13.43
2022-12-10T08:53:33.787Z,14.93
2022-12-10T08:56:00.273Z,14.57
2022-12-10T08:58:26.599Z,15.73
2022-12-10T09:00:53.209Z,12.93
2022-12-10T09:03:19.854Z,12.33
2022-12-10T09:05:46.200Z,14.97
2022-12-10T09:08:12.566Z,14.00
2022-12-10T09:10:40.454Z,12.43
2022-12-10T09:13:07.356Z,11.73
2022-12-10T09:15:33.735Z,15.63
2022-12-10T09:18:00.026Z,12.80
2022-12-10T09:20:26.372Z,12.27
2022-12-10T09:22:52.740Z,13.07
2022-12-10T09:25:22.110Z,12.63
2022-12-10T09:27:49.038Z,12.63
2022-12-10T09:30:16.122Z,15.73
2022-12-10T09:32:42.591Z,14.13
2022-12-10T09:35:08.985Z,11.47
2022-12-10T09:37:35.367Z,11.60
2022-12-10T09:40:01.781Z,12.53
2022-12-10T09:42:48.849Z,10.10
2022-12-10T09:45:25.146Z,14.27
2022-12-10T09:48:03.383Z,13.63
2022-12-10T09:50:34.962Z,15.00
2022-12-10T09:53:03.634Z,11.97
2022-12-10T09:55:43.353Z,13.47
2022-12-10T09:58:17.099Z,12.27
2022-12-10T10:00:47.054Z,12.93
2022-12-10T10:03:15.649Z,13.17
2022-12-10T10:05:46.717Z,13.70
2022-12-10T10:08:23.022Z,15.07
2022-12-10T10:10:49.759Z,11.63
2022-12-10T10:13:30.069Z,13.37
2022-12-10T10:15:56.386Z,10.87
2022-12-10T10:18:22.609Z,9.03
2022-12-10T10:20:49.893Z,9.10
2022-12-10T10:23:17.029Z,14.13
2022-12-10T10:25:45.410Z,11.03
2022-12-10T10:28:14.546Z,9.17
2022-12-10T10:30:45.056Z,9.77
2022-12-10T10:33:13.603Z,9.57
2022-12-10T10:35:47.724Z,8.57
2022-12-10T10:38:24.460Z,9.77
2022-12-10T10:40:53.542Z,12.30
2022-12-10T10:43:24.954Z,9.00
2022-12-10T10:45:55.421Z,8.83
2022-12-10T10:48:24.570Z,9.67
2022-12-10T10:51:13.769Z,11.17
2022-12-10T10:53:40.013Z,8.83
2022-12-10T10:56:09.204Z,10.23
2022-12-10T10:58:37.413Z,9.40
2022-12-10T11:01:08.386Z,7.80
2022-12-10T11:03:37.668Z,7.90
2022-12-10T11:06:08.131Z,7.57
2022-12-10T11:08:38.063Z,6.77
2022-12-10T11:11:26.111Z,6.07
2022-12-10T11:13:52.484Z,7.37
2022-12-10T11:16:23.366Z,9.13
2022-12-10T11:19:05.407Z,7.70
2022-12-10T11:21:33.985Z,7.77
2022-12-10T11:24:04.932Z,8.10
2022-12-10T11:26:53.030Z,7.87
2022-12-10T11:29:47.272Z,7.03
2022-12-10T11:32:22.858Z,7.13
2022-12-10T11:35:01.912Z,7.53
2022-12-10T11:37:53.410Z,7.33
2022-12-10T11:40:19.639Z,8.00
2022-12-10T11:43:15.363Z,7.57
2022-12-10T11:46:17.901Z,8.57
2022-12-10T11:48:57.256Z,7.57
2022-12-10T11:51:52.245Z,7.23
2022-12-10T11:55:05.962Z,7.43
2022-12-10T11:57:59.977Z,6.57
2022-12-10T12:00:34.096Z,8.00
2022-12-10T12:03:24.952Z,8.20
2022-12-10T12:06:16.850Z,9.17
2022-12-10T12:09:01.581Z,9.07
2022-12-10T12:11:35.367Z,7.10
2022-12-10T12:14:07.687Z,8.87
2022-12-10T12:17:16.704Z,7.83
2022-12-10T12:19:51.989Z,7.03
2022-12-10T12:22:34.038Z,9.17
2022-12-10T12:25:06.997Z,11.40
2022-12-10T12:27:54.241Z,6.77
2022-12-10T12:30:23.004Z,7.83
2022-12-10T12:33:30.205Z,9.40
2022-12-10T12:36:01.794Z,7.70
2022-12-10T12:38:46.089Z,7.07
2022-12-10T12:41:24.606Z,8.17
2022-12-10T12:44:04.066Z,7.63
2022-12-10T12:46:36.277Z,7.60
2022-12-10T12:49:14.411Z,8.13
2022-12-10T12:51:45.999Z,10.10
2022-12-10T12:54:13.020Z,7.93
2022-12-10T12:57:00.395Z,7.90
2022-12-10T12:59:49.233Z,7.90
2022-12-10T13:02:31.209Z,8.57
2022-12-10T13:05:01.126Z,7.60
2022-12-10T13:07:29.851Z,8.40
2022-12-10T13:10:24.741Z,8.73
2022-12-10T13:13:08.625Z,5.67
2022-12-10T13:15:37.650Z,8.57
2022-12-10T13:18:19.191Z,6.67
2022-12-10T13:20:48.354Z,7.97
2022-12-10T13:23:26.881Z,7.73
2022-12-10T13:25:55.606Z,10.00
2022-12-10T13:28:48.981Z,9.07
2022-12-10T13:31:15.827Z,8.53
2022-12-10T13:34:20.490Z,7.50
2022-12-10T13:36:46.733Z,6.27
2022-12-10T13:39:23.289Z,10.07
2022-12-10T13:42:34.732Z,10.17
2022-12-10T13:45:04.989Z,9.90
2022-12-10T13:47:46.643Z,8.47
2022-12-10T13:50:33.579Z,8.73
2022-12-10T13:53:15.337Z,10.10
2022-12-10T13:56:03.221Z,9.03
2022-12-10T13:59:04.457Z,9.53
2022-12-10T14:01:51.005Z,9.57
2022-12-10T14:04:55.468Z,7.70
2022-12-10T14:07:22.870Z,9.10
2022-12-10T14:09:53.066Z,9.17
2022-12-10T14:12:23.721Z,8.60
2022-12-10T14:14:56.284Z,7.80
2022-12-10T14:17:30.387Z,10.63
2022-12-10T14:19:56.965Z,9.10
2022-12-10T14:22:34.197Z,8.03
2022-12-10T14:25:04.575Z,5.00
2022-12-10T14:27:30.989Z,8.40
2022-12-10T14:30:18.774Z,9.63
2022-12-10T14:32:46.261Z,12.63
2022-12-10T14:35:25.135Z,11.73
2022-12-10T14:37:55.606Z,9.80
2022-12-10T14:40:33.578Z,11.80
2022-12-10T14:43:09.512Z,7.07
2022-12-10T14:45:47.230Z,12.77
2022-12-10T14:48:17.160Z,10.63
2022-12-10T14:50:47.029Z,13.57
2022-12-10T14:53:25.008Z,9.30
2022-12-10T14:55:58.695Z,10.70
2022-12-10T14:58:37.172Z,9.30
2022-12-10T15:01:16.115Z,12.90
2022-12-10T15:03:47.189Z,15.37
2022-12-10T15:06:18.352Z,12.57
2022-12-10T15:08:47.018Z,11.93
2022-12-10T15:11:18.410Z,16.43
2022-12-10T15:13:48.984Z,13.27
2022-12-10T15:16:20.578Z,11.97
2022-12-10T15:18:47.124Z,13.77
2022-12-10T15:21:21.857Z,13.00
2022-12-10T15:23:48.970Z,11.60
2022-12-10T15:26:20.247Z,16.17
2022-12-10T15:28:48.317Z,13.57
2022-12-10T15:31:25.999Z,14.93
2022-12-10T15:34:01.789Z,12.03
2022-12-10T15:36:33.763Z,17.83
2022-12-10T15:39:24.788Z,17.70
2022-12-10T15:42:31.820Z,17.03
2022-12-10T15:45:21.996Z,17.43
2022-12-10T15:47:48.519Z,18.13
2022-12-10T15:50:15.568Z,13.20
2022-12-10T15:52:42.634Z,18.97
2022-12-10T15:55:10.018Z,15.50
2022-12-10T15:57:40.351Z,15.17
2022-12-10T16:00:16.119Z,18.43
2022-12-10T16:02:48.241Z,15.57
2022-12-10T16:05:19.191Z,16.90
2022-12-10T16:07:47.449Z,15.80
2022-12-10T16:10:16.477Z,14.20
2022-12-10T16:12:45.832Z,14.10
2022-12-10T16:15:21.499Z,13.70
2022-12-10T16:17:48.478Z,15.77
2022-12-10T16:20:19.828Z,13.83
2022-12-10T16:22:47.172Z,13.20
2022-12-10T16:25:14.210Z,12.70
2022-12-10T16:27:43.429Z,13.80
2022-12-10T16:30:20.370Z,16.67
2022-12-10T16:32:47.829Z,19.67
2022-12-10T16:35:15.085Z,15.37
2022-12-10T16:37:43.364Z,14.17
2022-12-10T16:40:11.158Z,15.30
2022-12-10T16:42:39.886Z,16.30
2022-12-10T16:45:36.648Z,15.27
2022-12-10T16:48:03.692Z,16.23
2022-12-10T16:50:30.145Z,19.00
2022-12-10T16:52:58.176Z,17.17
2022-12-10T16:55:26.558Z,17.53
2022-12-10T16:57:54.385Z,16.50
2022-12-10T17:00:23.633Z,17.57
2022-12-10T17:02:51.660Z,21.47
2022-12-10T17:05:34.569Z,21.03
2022-12-10T17:08:00.864Z,19.47
2022-12-10T17:10:50.805Z,18.43
2022-12-10T17:13:17.482Z,18.30
2022-12-10T17:15:44.361Z,22.57
2022-12-10T17:18:15.301Z,19.60
2022-12-10T17:20:42.085Z,18.50
2022-12-10T17:23:08.402Z,19.80
2022-12-10T17:25:35.376Z,17.10
2022-12-10T17:28:01.797Z,25.43
2022-12-10T17:30:28.079Z,18.67
2022-12-10T17:32:54.440Z,21.17
2022-12-10T17:35:22.005Z,17.10
2022-12-10T17:37:51.253Z,19.90
2022-12-10T17:40:19.716Z,18.93
2022-12-10T17:42:46.133Z,18.13
2022-12-10T17:45:17.710Z,18.27
2022-12-10T17:47:48.279Z,19.33
2022-12-10T17:50:17.294Z,24.00
2022-12-10T17:52:43.597Z,21.63
2022-12-10T17:55:09.872Z,20.60
2022-12-10T17:57:36.204Z,17.97
2022-12-10T18:00:02.961Z,20.67
2022-12-10T18:02:29.352Z,23.50
2022-12-10T18:04:55.706Z,23.10
2022-12-10T18:07:22.011Z,21.77
2022-12-10T18:09:48.369Z,22.03
2022-12-10T18:12:14.807Z,21.83
2022-12-10T18:14:41.530Z,21.87
2022-12-10T18:17:12.875Z,24.13
2022-12-10T18:19:43.099Z,16.70
2022-12-10T18:22:11.047Z,19.67
2022-12-10T18:24:37.957Z,21.97
2022-12-10T18:27:04.346Z,19.67
2022-12-10T18:29:31.438Z,28.63
2022-12-10T18:31:57.877Z,22.33
2022-12-10T18:34:25.692Z,36.70
2022-12-10T18:36:52.080Z,27.30
2022-12-10T18:39:23.900Z,24.80
2022-12-10T18:41:51.273Z,26.27
2022-12-10T18:44:21.798Z,26.60
2022-12-10T18:46:48.740Z,29.57
2022-12-10T18:49:15.789Z,30.63
2022-12-10T18:51:42.354Z,25.90
2022-12-10T18:54:09.036Z,24.77
2022-12-10T18:56:36.452Z,21.37
2022-12-10T18:59:04.838Z,21.43
2022-12-10T19:01:31.281Z,24.43
2022-12-10T19:03:58.750Z,23.83
2022-12-10T19:06:28.034Z,24.53
2022-12-10T19:11:47.467Z,22.37
2022-12-10T19:14:15.296Z,27.73
2022-12-10T19:16:42.204Z,26.70
2022-12-10T19:19:11.955Z,26.57
2022-12-10T19:21:38.635Z,33.10
2022-12-10T19:24:05.806Z,38.53
2022-12-10T19:26:34.625Z,34.77
2022-12-10T19:29:13.397Z,24.00
2022-12-10T19:31:39.964Z,23.53
2022-12-10T19:34:06.246Z,24.70
2022-12-10T19:36:34.052Z,28.03
2022-12-10T19:39:00.650Z,26.10
2022-12-10T19:41:27.188Z,22.50
2022-12-10T19:43:53.916Z,23.50
2022-12-10T19:46:22.877Z,22.53
2022-12-10T19:48:50.120Z,23.10
2022-12-10T19:51:16.774Z,18.87
2022-12-10T19:53:43.973Z,23.80
2022-12-10T19:56:19.798Z,29.90
2022-12-10T19:58:48.172Z,32.27
2022-12-10T20:01:14.853Z,22.13
2022-12-10T20:03:41.350Z,26.43
2022-12-10T20:06:31.991Z,22.17
2022-12-10T20:09:00.265Z,22.63
2022-12-10T20:11:27.713Z,27.00
2022-12-10T20:13:54.096Z,27.10
2022-12-10T20:16:27.894Z,29.23
2022-12-10T20:18:56.452Z,29.83
2022-12-10T20:21:24.183Z,24.13
2022-12-10T20:23:51.962Z,23.33
2022-12-10T20:26:30.316Z,25.27
2022-12-10T20:28:56.858Z,24.07
2022-12-10T20:31:23.917Z,21.17
2022-12-10T20:33:50.259Z,24.73
2022-12-10T20:36:20.523Z,24.53
2022-12-10T20:38:47.072Z,22.93
2022-12-10T20:41:15.849Z,21.60
2022-12-10T20:43:42.436Z,27.30
2022-12-10T20:46:22.434Z,25.40
2022-12-10T20:48:49.912Z,25.63
2022-12-10T20:51:17.101Z,26.13
2022-12-10T20:53:43.518Z,21.63
2022-12-10T20:56:15.885Z,21.73
2022-12-10T20:58:42.337Z,25.07
2022-12-10T21:01:09.118Z,26.83
2022-12-10T21:03:35.941Z,25.73
2022-12-10T21:06:02.257Z,24.13
2022-12-10T21:08:28.885Z,28.60
2022-12-10T21:10:56.632Z,22.17
2022-12-10T21:13:27.837Z,27.17
2022-12-10T21:15:56.347Z,26.63
2022-12-10T21:18:22.728Z,25.63
2022-12-10T21:20:49.143Z,29.57
2022-12-10T21:23:19.770Z,26.33
2022-12-10T21:25:46.574Z,26.87
2022-12-10T21:28:13.298Z,25.87
2022-12-10T21:30:40.224Z,25.83
2022-12-10T21:33:06.790Z,26.20
2022-12-10T21:35:33.126Z,28.33
2022-12-10T21:37:59.784Z,30.67
2022-12-10T21:40:26.193Z,26.80
2022-12-10T21:43:10.999Z,25.47
2022-12-10T21:45:37.437Z,26.17
2022-12-10T21:48:03.972Z,29.37
2022-12-10T21:50:31.129Z,28.30
2022-12-10T21:52:57.671Z,27.13
2022-12-10T21:55:29.915Z,29.90
2022-12-10T21:57:57.219Z,29.97
2022-12-10T22:00:23.511Z,35.77
2022-12-10T22:02:49.953Z,26.63
2022-12-10T22:05:16.463Z,31.73
2022-12-10T22:07:42.949Z,27.27
2022-12-10T22:10:12.148Z,28.47
2022-12-10T22:12:38.674Z,31.40
2022-12-10T22:15:05.522Z,24.33
2022-12-10T22:17:31.882Z,26.57
2022-12-10T22:19:58.227Z,31.73
2022-12-10T22:22:24.566Z,26.90
2022-12-10T22:24:50.906Z,29.23
2022-12-10T22:27:17.869Z,31.00
2022-12-10T22:29:44.406Z,27.73
2022-12-10T22:32:10.714Z,29.07
2022-12-10T22:34:42.029Z,26.10
2022-12-10T22:37:11.627Z,27.60
2022-12-10T22:39:37.939Z,28.50
2022-12-10T22:42:04.444Z,33.77
2022-12-10T22:44:30.795Z,26.60
2022-12-10T22:46:57.795Z,26.27
2022-12-10T22:49:24.259Z,31.80
2022-12-10T22:51:50.583Z,26.37
2022-12-10T22:54:16.972Z,29.13
2022-12-10T22:56:43.333Z,31.43
2022-12-10T22:59:11.434Z,23.70
2022-12-10T23:01:38.101Z,28.47
2022-12-10T23:04:04.686Z,27.83
2022-12-10T23:06:31.355Z,24.80
2022-12-10T23:08:58.070Z,28.07
2022-12-10T23:11:24.359Z,28.30
2022-12-10T23:13:50.695Z,27.43
2022-12-10T23:16:18.569Z,25.57
2022-12-10T23:18:49.733Z,24.50
2022-12-10T23:21:27.048Z,26.57
2022-12-10T23:23:54.305Z,27.60
2022-12-10T23:26:21.909Z,25.67
2022-12-10T23:28:48.585Z,31.73
2022-12-10T23:31:15.812Z,28.07
2022-12-10T23:33:42.358Z,31.50
2022-12-10T23:36:09.606Z,29.37
2022-12-10T23:38:36.738Z,32.00
2022-12-10T23:41:10.233Z,28.97
2022-12-10T23:43:36.900Z,27.83
2022-12-10T23:46:03.542Z,28.20
2022-12-10T23:48:30.503Z,30.67
2022-12-10T23:50:58.039Z,31.03
2022-12-10T23:53:24.363Z,31.20
2022-12-10T23:55:50.926Z,30.00
2022-12-10T23:58:17.710Z,31.20
